Time;durP1;ratioP1;P1;durP2;ratioP2;P2;SDS_P1;SDS_P2;PMS_P1;PMS_P2;Temp;Humidity;BMP_temperature;BMP_pressure;BME280_temperature;BME280_humidity;BME280_pressure;Samples;Min_cycle;Max_cycle;Signal;HPM_P1;HPM_P2
2022/03/10 00:00:43;;;;;;;8.90;3.30;;;;;;;-1.83;80.00;101575.84;104805;1273;73843;-76
2022/03/10 00:03:32;;;;;;;11.00;3.80;;;;;;;-1.86;79.89;101581.25;104963;1274;68335;-76
2022/03/10 00:06:22;;;;;;;12.60;3.90;;;;;;;-1.91;80.22;101579.88;104954;1276;71560;-75
2022/03/10 00:09:10;;;;;;;7.90;3.10;;;;;;;-1.95;80.10;101578.48;104212;1276;1003231;-75
2022/03/10 00:12:01;;;;;;;10.00;3.80;;;;;;;-1.99;80.08;101587.37;104682;1277;60600;-75
2022/03/10 00:14:49;;;;;;;12.50;4.60;;;;;;;-2.02;80.23;101592.77;104792;1276;73320;-73
2022/03/10 00:17:36;;;;;;;9.70;3.90;;;;;;;-2.04;80.21;101598.33;104526;1277;67798;-74
2022/03/10 00:20:23;;;;;;;10.30;4.50;;;;;;;-2.08;80.88;101594.16;103729;1276;1003761;-74
2022/03/10 00:23:10;;;;;;;10.50;4.00;;;;;;;-2.09;80.66;101594.50;104849;1277;59698;-73
2022/03/10 00:25:58;;;;;;;9.40;4.00;;;;;;;-2.11;80.69;101599.89;104489;1276;60425;-74
2022/03/10 00:28:46;;;;;;;10.40;4.20;;;;;;;-2.13;81.03;101597.82;104538;1277;71983;-75
2022/03/10 00:31:34;;;;;;;9.80;3.70;;;;;;;-2.18;81.17;101598.33;104091;1277;1003508;-76
2022/03/10 00:34:21;;;;;;;12.80;4.90;;;;;;;-2.22;81.30;101598.34;104473;1277;71569;-74
2022/03/10 00:37:09;;;;;;;12.40;4.60;;;;;;;-2.26;81.67;101602.35;104706;1274;59645;-73
2022/03/10 00:39:56;;;;;;;11.30;4.80;;;;;;;-2.29;81.68;101609.30;104629;1274;59690;-75
2022/03/10 00:42:44;;;;;;;10.90;4.50;;;;;;;-2.32;81.91;101606.86;105013;1274;70987;-75
2022/03/10 00:45:31;;;;;;;11.80;5.50;;;;;;;-2.33;81.93;101612.25;104829;1274;68103;-75
2022/03/10 00:48:19;;;;;;;11.90;4.60;;;;;;;-2.34;82.05;101614.16;105007;1274;71594;-75
2022/03/10 00:51:07;;;;;;;10.30;4.30;;;;;;;-2.36;82.14;101611.91;104927;1274;59660;-75
2022/03/10 00:53:54;;;;;;;12.50;4.70;;;;;;;-2.37;82.27;101615.54;104810;1274;60475;-75
2022/03/10 00:56:42;;;;;;;10.50;4.70;;;;;;;-2.40;82.63;101622.66;104862;1271;72120;-75
2022/03/10 00:59:29;;;;;;;13.40;5.40;;;;;;;-2.41;82.26;101624.07;105004;1273;68027;-74
2022/03/10 01:02:16;;;;;;;10.40;4.80;;;;;;;-2.43;82.43;101621.99;105314;1271;73234;-74
2022/03/10 01:05:06;;;;;;;10.50;4.60;;;;;;;-2.44;82.45;101623.90;105207;1272;59708;-75
2022/03/10 01:07:54;;;;;;;10.90;4.20;;;;;;;-2.45;82.23;101620.77;104885;1271;59695;-75
2022/03/10 01:10:41;;;;;;;10.00;3.60;;;;;;;-2.45;82.25;101627.02;104809;1271;73718;-72
2022/03/10 01:13:32;;;;;;;9.80;3.90;;;;;;;-2.48;82.29;101631.02;105011;1271;66778;-73
2022/03/10 01:16:19;;;;;;;9.50;3.90;;;;;;;-2.50;82.57;101632.92;104916;1271;71686;-72
2022/03/10 01:19:08;;;;;;;12.80;4.10;;;;;;;-2.53;82.49;101638.65;103616;1271;1003845;-72
2022/03/10 01:21:56;;;;;;;10.80;4.60;;;;;;;-2.56;82.72;101646.47;105123;1271;60268;-73
2022/03/10 01:24:45;;;;;;;12.80;4.90;;;;;;;-2.59;83.03;101649.95;105123;1271;73538;-71
2022/03/10 01:27:36;;;;;;;10.50;4.70;;;;;;;-2.61;83.00;101651.16;105337;1271;68381;-74
2022/03/10 01:30:23;;;;;;;12.20;4.50;;;;;;;-2.58;83.18;101653.77;105094;1271;73284;-74
2022/03/10 01:33:10;;;;;;;12.80;5.10;;;;;;;-2.59;82.88;101651.51;104094;1271;1003159;-74
2022/03/10 01:35:58;;;;;;;10.40;4.50;;;;;;;-2.60;83.15;101652.90;105261;1271;60584;-74
2022/03/10 01:38:47;;;;;;;10.20;4.30;;;;;;;-2.59;83.00;101660.71;105030;1271;72021;-73
2022/03/10 01:41:35;;;;;;;11.80;4.30;;;;;;;-2.60;83.03;101664.55;105104;1271;67944;-73
2022/03/10 01:44:24;;;;;;;8.80;3.70;;;;;;;-2.62;82.68;101666.10;105182;1271;73233;-74
2022/03/10 01:47:12;;;;;;;10.80;4.80;;;;;;;-2.65;82.79;101661.05;105095;1271;59867;-73
2022/03/10 01:49:59;;;;;;;10.90;4.70;;;;;;;-2.67;82.82;101664.17;105200;1271;59554;-75
2022/03/10 01:52:48;;;;;;;13.10;5.00;;;;;;;-2.70;82.83;101662.61;105233;1271;73507;-73
2022/03/10 01:55:36;;;;;;;11.00;4.80;;;;;;;-2.71;82.88;101669.02;105026;1271;67343;-74
2022/03/10 01:58:26;;;;;;;10.90;4.30;;;;;;;-2.75;83.11;101659.80;105065;1271;74592;-74
2022/03/10 02:01:16;;;;;;;10.90;4.70;;;;;;;-2.72;82.97;101670.94;105258;1271;59650;-74
2022/03/10 02:04:04;;;;;;;12.20;4.30;;;;;;;-2.73;83.28;101674.41;105284;1271;60525;-75
2022/03/10 02:06:53;;;;;;;12.30;4.90;;;;;;;-2.74;83.30;101677.54;105157;1271;71985;-75
2022/03/10 02:12:52;;;;;;;14.10;5.00;;;;;;;-2.78;83.51;101677.70;104376;1271;1003854;-74
2022/03/10 02:18:49;;;;;;;10.70;4.80;;;;;;;-2.79;84.26;101677.52;105392;1271;60959;-74
2022/03/10 02:21:38;;;;;;;11.70;5.00;;;;;;;-2.80;84.53;101686.20;105116;1271;73494;-74
2022/03/10 02:24:28;;;;;;;10.70;4.50;;;;;;;-2.79;84.75;101689.86;105089;1271;69194;-75
2022/03/10 02:27:27;;;;;;;12.60;4.70;;;;;;;-2.80;84.77;101692.80;105189;1271;72938;-73
2022/03/10 02:30:14;;;;;;;12.90;5.00;;;;;;;-2.81;84.62;101694.89;104524;1273;1016485;-74
2022/03/10 02:33:04;;;;;;;10.90;4.40;;;;;;;-2.82;84.74;101700.80;105115;1276;60739;-75
2022/03/10 02:35:51;;;;;;;14.20;5.80;;;;;;;-2.84;84.67;101701.48;104709;1276;73294;-75
2022/03/10 02:38:40;;;;;;;12.40;5.60;;;;;;;-2.86;84.90;101704.60;104970;1276;66905;-75
2022/03/10 02:41:28;;;;;;;11.50;5.00;;;;;;;-2.87;84.52;101708.77;104656;1278;72814;-74
2022/03/10 02:44:16;;;;;;;11.60;5.00;;;;;;;-2.91;84.13;101707.20;104466;1276;59705;-75
2022/03/10 02:47:03;;;;;;;11.90;5.00;;;;;;;-2.90;83.70;101717.09;104529;1276;59655;-75
2022/03/10 02:49:54;;;;;;;10.50;4.30;;;;;;;-2.91;83.67;101716.91;104467;1276;73324;-75
2022/03/10 02:52:45;;;;;;;11.20;4.40;;;;;;;-2.93;82.90;101717.42;104662;1276;67070;-75
2022/03/10 02:55:34;;;;;;;12.50;4.70;;;;;;;-2.97;82.68;101716.71;104607;1276;72947;-75
2022/03/10 02:58:21;;;;;;;10.90;4.40;;;;;;;-3.01;82.36;101714.43;104676;1276;59826;-75
2022/03/10 03:01:09;;;;;;;10.80;4.10;;;;;;;-3.05;82.11;101718.05;104737;1278;60560;-75
2022/03/10 03:03:58;;;;;;;11.20;4.40;;;;;;;-3.10;82.16;101721.86;104648;1273;73176;-77
2022/03/10 03:06:47;;;;;;;12.30;4.90;;;;;;;-3.18;81.97;101719.90;104664;1274;66869;-76
2022/03/10 03:09:35;;;;;;;12.10;5.00;;;;;;;-3.18;81.68;101731.89;105127;1273;72961;-75
2022/03/10 03:12:26;;;;;;;14.30;5.50;;;;;;;-3.21;81.73;101734.30;104435;1272;1003367;-75
2022/03/10 03:15:15;;;;;;;16.40;5.20;;;;;;;-3.25;81.45;101732.54;104888;1273;59640;-74
2022/03/10 03:18:06;;;;;;;13.80;4.90;;;;;;;-3.26;81.66;101737.22;104929;1273;73178;-74
2022/03/10 03:20:53;;;;;;;11.90;4.90;;;;;;;-3.27;81.47;101740.33;104918;1273;67953;-74
2022/03/10 03:23:41;;;;;;;14.60;4.80;;;;;;;-3.29;81.31;101747.62;105178;1273;72616;-74
2022/03/10 03:26:29;;;;;;;13.00;5.20;;;;;;;-3.31;81.45;101752.64;104375;1273;1005760;-74
2022/03/10 03:29:17;;;;;;;12.50;5.20;;;;;;;-3.34;81.35;101755.23;104895;1273;59766;-73
2022/03/10 03:32:08;;;;;;;14.30;5.20;;;;;;;-3.38;81.52;101763.69;104342;1274;1003129;-74
2022/03/10 03:34:55;;;;;;;13.90;4.90;;;;;;;-3.42;81.31;101764.02;104824;1273;68393;-73
2022/03/10 03:37:42;;;;;;;14.60;5.10;;;;;;;-3.48;81.48;101765.20;104741;1273;73589;-75
2022/03/10 03:40:30;;;;;;;18.30;5.20;;;;;;;-3.51;81.68;101769.15;105043;1273;59665;-77
2022/03/10 03:43:17;;;;;;;13.30;5.20;;;;;;;-3.55;81.78;101764.10;105158;1273;59692;-76
2022/03/10 03:46:04;;;;;;;15.10;5.30;;;;;;;-3.57;81.68;101768.08;104846;1273;72060;-74
2022/03/10 03:48:52;;;;;;;15.30;5.50;;;;;;;-3.58;81.63;101772.92;104650;1274;68121;-75
2022/03/10 03:51:40;;;;;;;13.70;4.50;;;;;;;-3.59;81.61;101776.04;104685;1273;71768;-76
2022/03/10 03:54:29;;;;;;;10.70;4.80;;;;;;;-3.60;81.29;101777.59;104521;1276;59739;-73
2022/03/10 03:57:17;;;;;;;13.40;5.10;;;;;;;-3.62;80.92;101783.82;104060;1276;1003553;-72
2022/03/10 04:00:08;;;;;;;17.10;5.20;;;;;;;-3.66;80.41;101783.10;104646;1277;73292;-73
2022/03/10 04:02:55;;;;;;;10.20;4.50;;;;;;;-3.66;80.56;101792.81;104925;1276;66304;-73
2022/03/10 04:05:42;;;;;;;11.20;4.50;;;;;;;-3.67;80.16;101799.22;104906;1277;70185;-73
2022/03/10 04:08:29;;;;;;;13.20;5.10;;;;;;;-3.69;80.48;101801.98;104567;1276;61261;-74
2022/03/10 04:11:17;;;;;;;17.70;4.80;;;;;;;-3.71;80.04;101809.59;104599;1276;59663;-73
2022/03/10 04:14:05;;;;;;;13.80;5.00;;;;;;;-3.71;79.66;101813.56;104050;1276;1003593;-74
2022/03/10 04:16:54;;;;;;;12.50;4.50;;;;;;;-3.72;79.46;101816.00;104678;1276;66870;-75
2022/03/10 04:19:42;;;;;;;13.20;4.20;;;;;;;-3.73;79.33;101819.11;104886;1276;73533;-72
2022/03/10 04:22:29;;;;;;;13.10;5.30;;;;;;;-3.77;79.11;101822.56;105008;1276;59832;-73
2022/03/10 04:25:16;;;;;;;13.10;4.40;;;;;;;-3.78;78.96;101828.10;103888;1274;1002957;-72
2022/03/10 04:28:04;;;;;;;11.90;4.70;;;;;;;-3.80;78.93;101826.69;105245;1271;72621;-72
2022/03/10 04:30:51;;;;;;;12.80;5.10;;;;;;;-3.82;78.92;101831.36;105069;1272;67937;-71
2022/03/10 04:33:41;;;;;;;15.70;5.50;;;;;;;-3.87;78.97;101831.13;105088;1271;71680;-71
2022/03/10 04:36:29;;;;;;;11.90;4.20;;;;;;;-3.92;79.11;101832.81;105170;1271;59672;-71
2022/03/10 04:39:16;;;;;;;13.20;5.20;;;;;;;-3.94;78.97;101840.77;105082;1272;59757;-73
2022/03/10 04:42:03;;;;;;;15.20;5.80;;;;;;;-3.97;79.27;101841.09;103911;1273;1003119;-74
2022/03/10 04:44:51;;;;;;;17.10;5.20;;;;;;;-3.99;78.88;101850.62;104327;1271;1003020;-76
2022/03/10 04:47:40;;;;;;;15.60;5.50;;;;;;;-4.03;78.78;101845.71;105075;1271;70370;-74
2022/03/10 04:50:27;;;;;;;14.00;5.10;;;;;;;-3.98;78.87;101857.02;105029;1271;1002896;-75
2022/03/10 04:53:14;;;;;;;13.90;5.00;;;;;;;-3.98;78.75;101856.52;105462;1271;59766;-74
2022/03/10 04:56:05;;;;;;;14.00;5.40;;;;;;;-3.99;78.60;101863.27;104281;1272;1002644;-75
2022/03/10 04:58:52;;;;;;;12.70;4.20;;;;;;;-4.02;78.71;101862.55;105105;1271;66887;-76
2022/03/10 05:01:39;;;;;;;13.80;4.90;;;;;;;-4.01;78.59;101866.88;105000;1271;70437;-76
2022/03/10 05:04:27;;;;;;;13.80;5.30;;;;;;;-4.03;78.73;101867.55;104992;1271;59768;-76
2022/03/10 05:07:17;;;;;;;12.90;4.80;;;;;;;-4.07;78.73;101866.64;105133;1271;60718;-75
2022/03/10 05:10:05;;;;;;;11.90;4.70;;;;;;;-4.06;78.56;101876.19;105188;1271;72118;-73
2022/03/10 05:12:57;;;;;;;14.90;5.80;;;;;;;-4.08;78.53;101880.48;104515;1271;1002622;-75
2022/03/10 05:15:44;;;;;;;16.60;5.50;;;;;;;-4.09;78.35;101884.30;104905;1274;71373;-75
2022/03/10 05:18:32;;;;;;;13.90;4.90;;;;;;;-4.07;78.41;101886.91;105190;1271;59630;-75
2022/03/10 05:21:20;;;;;;;14.50;4.90;;;;;;;-4.06;78.08;101890.58;104659;1273;59884;-74
2022/03/10 05:24:12;;;;;;;11.80;5.10;;;;;;;-4.09;78.03;101885.86;104410;1274;1003038;-76
2022/03/10 05:27:00;;;;;;;14.20;5.00;;;;;;;-4.08;78.23;101880.15;105425;1271;68116;-74
2022/03/10 05:29:48;;;;;;;17.80;5.20;;;;;;;-4.05;77.96;101888.52;105457;1272;73587;-75
2022/03/10 05:32:35;;;;;;;12.10;4.40;;;;;;;-4.06;77.79;101891.63;105123;1271;59783;-74
2022/03/10 05:35:24;;;;;;;10.80;4.70;;;;;;;-4.07;77.83;101888.48;105159;1271;59700;-73
2022/03/10 05:38:11;;;;;;;13.00;4.60;;;;;;;-4.07;77.90;101892.11;105429;1271;73613;-75
2022/03/10 05:41:01;;;;;;;14.50;5.30;;;;;;;-4.07;77.83;101895.60;105012;1274;68648;-76
2022/03/10 05:43:52;;;;;;;12.20;4.90;;;;;;;-4.09;77.87;101892.63;105735;1271;73398;-76
2022/03/10 05:47:01;;;;;;;14.80;5.10;;;;;;;-4.06;77.65;101893.87;105203;1271;59556;-74
2022/03/10 05:49:51;;;;;;;14.10;5.30;;;;;;;-4.10;77.37;101878.39;105122;1271;61108;-74
2022/03/10 05:52:39;;;;;;;14.70;4.90;;;;;;;-3.95;77.43;101897.13;105138;1271;73531;-74
2022/03/10 05:55:27;;;;;;;17.30;6.30;;;;;;;-3.89;77.06;101905.69;105120;1272;68142;-72
2022/03/10 05:58:15;;;;;;;15.20;4.90;;;;;;;-3.88;76.97;101910.39;105357;1271;72225;-74
2022/03/10 06:01:03;;;;;;;13.80;4.70;;;;;;;-3.83;76.79;101913.90;105143;1272;59665;-73
2022/03/10 06:03:51;;;;;;;11.50;4.20;;;;;;;-3.82;76.58;101919.14;104201;1274;1002961;-72
2022/03/10 06:06:38;;;;;;;14.40;5.10;;;;;;;-3.80;76.49;101922.63;104953;1274;71222;-73
2022/03/10 06:09:26;;;;;;;13.60;5.10;;;;;;;-3.79;75.94;101926.45;104484;1271;1003732;-73
2022/03/10 06:12:20;;;;;;;10.90;4.50;;;;;;;-3.79;75.56;101935.64;105680;1274;72033;-72
2022/03/10 06:15:15;;;;;;;15.90;5.00;;;;;;;-3.76;75.46;101944.69;103673;1272;1003419;-73
2022/03/10 06:18:11;;;;;;;14.80;5.10;;;;;;;-3.69;75.25;101945.63;105314;1272;59620;-77
2022/03/10 06:20:59;;;;;;;13.90;5.10;;;;;;;-3.65;74.59;101944.65;105258;1274;72354;-77
2022/03/10 06:23:46;;;;;;;14.10;5.00;;;;;;;-3.62;74.24;101947.98;105122;1271;65980;-78
2022/03/10 06:26:38;;;;;;;13.40;4.70;;;;;;;-3.61;73.64;101943.83;105053;1272;71787;-78
2022/03/10 06:29:25;;;;;;;12.90;4.80;;;;;;;-3.59;73.36;101940.54;105158;1274;59781;-75
2022/03/10 06:32:15;;;;;;;17.70;6.10;;;;;;;-3.51;73.34;101948.95;105170;1272;59592;-77
2022/03/10 06:35:08;;;;;;;12.40;5.30;;;;;;;-3.47;73.16;101954.55;104704;1274;1003096;-77
2022/03/10 06:38:00;;;;;;;15.60;5.60;;;;;;;-3.39;72.88;101957.06;105216;1273;67139;-77
2022/03/10 06:40:48;;;;;;;13.70;5.20;;;;;;;-3.33;72.53;101961.13;105215;1273;72757;-75
2022/03/10 06:43:35;;;;;;;18.20;5.30;;;;;;;-3.27;71.88;101962.23;105082;1274;59773;-77
2022/03/10 06:46:24;;;;;;;13.20;4.80;;;;;;;-3.21;71.86;101959.84;105132;1273;59556;-74
2022/03/10 06:49:12;;;;;;;12.80;5.20;;;;;;;-3.07;71.77;101969.19;105320;1274;73224;-72
2022/03/10 06:52:00;;;;;;;14.00;5.70;;;;;;;-2.97;70.59;101971.88;105131;1274;68455;-75
2022/03/10 06:54:47;;;;;;;12.60;5.40;;;;;;;-2.88;69.64;101974.38;105101;1273;70639;-74
2022/03/10 06:57:37;;;;;;;14.90;6.00;;;;;;;-2.78;69.27;101978.45;103982;1274;1003443;-71
2022/03/10 07:00:27;;;;;;;16.90;5.40;;;;;;;-2.71;68.08;101979.04;105053;1275;60336;-74
2022/03/10 07:03:14;;;;;;;16.00;5.20;;;;;;;-2.61;67.68;101980.33;104800;1276;73814;-72
2022/03/10 07:06:02;;;;;;;21.00;5.80;;;;;;;-2.43;66.93;101982.71;104612;1277;68137;-74
2022/03/10 07:08:51;;;;;;;14.70;5.90;;;;;;;-1.97;65.43;101982.98;104956;1276;72938;-74
2022/03/10 07:11:39;;;;;;;12.00;5.00;;;;;;;-0.05;64.52;101978.90;104059;1276;1003354;-72
2022/03/10 07:14:27;;;;;;;13.10;5.20;;;;;;;2.29;58.17;101974.11;104563;1276;60603;-75
2022/03/10 07:17:14;;;;;;;15.10;5.80;;;;;;;4.28;50.75;101971.14;104881;1276;72560;-77
2022/03/10 07:20:05;;;;;;;15.70;6.10;;;;;;;6.01;45.65;101963.27;104568;1276;66697;-76
2022/03/10 07:22:57;;;;;;;13.50;5.30;;;;;;;7.43;42.61;101969.45;104932;1276;73043;-77
2022/03/10 07:25:46;;;;;;;13.70;5.30;;;;;;;8.66;38.97;101966.91;104529;1276;59796;-76
2022/03/10 07:28:33;;;;;;;12.00;5.40;;;;;;;9.91;37.79;101963.32;105071;1271;60641;-77
2022/03/10 07:31:20;;;;;;;11.60;5.30;;;;;;;10.66;33.41;101966.12;105172;1274;72041;-75
2022/03/10 07:34:07;;;;;;;12.00;5.00;;;;;;;11.36;31.64;101963.05;105264;1271;67938;-77
2022/03/10 07:36:58;;;;;;;11.60;5.00;;;;;;;11.87;29.69;101961.12;105165;1271;73347;-78
2022/03/10 07:39:47;;;;;;;10.90;4.70;;;;;;;12.42;29.11;101960.46;105220;1271;59688;-77
2022/03/10 07:42:34;;;;;;;11.40;5.40;;;;;;;12.83;27.37;101955.18;105117;1271;59622;-77
2022/03/10 07:45:22;;;;;;;11.80;5.20;;;;;;;13.22;27.17;101953.45;105038;1273;73289;-78
2022/03/10 07:48:10;;;;;;;12.10;5.10;;;;;;;13.62;25.76;101950.96;104933;1271;68078;-77
2022/03/10 07:50:58;;;;;;;12.70;4.70;;;;;;;14.01;25.94;101944.96;105113;1272;73187;-77
2022/03/10 07:53:46;;;;;;;9.80;4.80;;;;;;;14.37;24.28;101942.35;105228;1271;59682;-77
2022/03/10 07:56:33;;;;;;;13.80;5.10;;;;;;;14.71;23.50;101938.75;105265;1271;59550;-77
2022/03/10 07:59:20;;;;;;;12.00;4.50;;;;;;;14.99;23.04;101940.87;105061;1272;73722;-77
2022/03/10 08:02:08;;;;;;;11.30;4.90;;;;;;;15.14;22.46;101944.52;105136;1274;68180;-77
2022/03/10 08:05:11;;;;;;;10.80;4.40;;;;;;;15.37;21.98;101937.10;105463;1271;73446;-75
2022/03/10 08:07:59;;;;;;;14.70;5.10;;;;;;;15.54;21.12;101941.63;105142;1272;59771;-77
2022/03/10 08:10:46;;;;;;;16.30;4.30;;;;;;;15.56;21.00;101941.85;105403;1271;60533;-77
2022/03/10 08:13:33;;;;;;;12.50;4.50;;;;;;;15.31;20.20;101940.89;104917;1272;73229;-76
2022/03/10 08:16:20;;;;;;;14.20;4.80;;;;;;;15.27;20.12;101942.94;104854;1274;66439;-75
2022/03/10 08:19:09;;;;;;;9.80;4.00;;;;;;;15.20;20.08;101947.48;105138;1271;71137;-76
2022/03/10 08:21:59;;;;;;;12.70;4.20;;;;;;;14.83;19.48;101959.78;104659;1272;353038;-76
2022/03/10 08:24:48;;;;;;;11.90;4.60;;;;;;;14.56;19.63;101958.50;104948;1271;60667;-78
2022/03/10 08:27:39;;;;;;;10.90;4.20;;;;;;;14.52;19.75;101958.91;105061;1271;73152;-77
2022/03/10 08:30:26;;;;;;;10.70;4.10;;;;;;;14.49;19.90;101957.69;104943;1274;66825;-78
2022/03/10 08:33:14;;;;;;;10.70;4.50;;;;;;;14.98;20.11;101957.02;105747;1271;73146;-78
2022/03/10 08:36:05;;;;;;;11.30;4.70;;;;;;;14.77;19.46;101951.41;105332;1273;59775;-78
2022/03/10 08:38:52;;;;;;;10.60;4.00;;;;;;;14.45;19.76;101952.38;105692;1274;60463;-78
2022/03/10 08:41:39;;;;;;;12.50;4.10;;;;;;;14.26;19.66;101952.89;105537;1273;71969;-78
2022/03/10 08:44:26;;;;;;;9.30;3.70;;;;;;;14.70;19.46;101956.00;105097;1273;68243;-79
2022/03/10 08:47:14;;;;;;;8.90;4.20;;;;;;;14.75;18.85;101952.80;104881;1273;71639;-76
2022/03/10 08:50:01;;;;;;;10.60;4.50;;;;;;;14.63;19.05;101955.03;105186;1273;59660;-77
2022/03/10 08:52:55;;;;;;;8.30;4.10;;;;;;;15.28;19.29;101952.14;105025;1272;59713;-77
2022/03/10 08:55:42;;;;;;;10.50;4.00;;;;;;;15.46;18.62;101954.87;105283;1271;73979;-77
2022/03/10 08:58:30;;;;;;;9.40;3.90;;;;;;;14.99;18.00;101955.34;104911;1274;66801;-77
2022/03/10 09:01:22;;;;;;;9.50;4.10;;;;;;;14.83;18.55;101948.19;105186;1274;72920;-76
2022/03/10 09:04:12;;;;;;;8.70;3.90;;;;;;;15.04;18.67;101946.09;105019;1271;59706;-76
2022/03/10 09:06:59;;;;;;;11.50;4.30;;;;;;;15.40;18.48;101943.48;105561;1271;59587;-78
2022/03/10 09:09:50;;;;;;;10.60;3.90;;;;;;;15.64;17.93;101941.13;105014;1274;72313;-76
2022/03/10 09:12:39;;;;;;;9.70;3.70;;;;;;;16.12;17.94;101939.77;105007;1273;68605;-76
2022/03/10 09:15:27;;;;;;;11.00;4.00;;;;;;;16.45;17.48;101939.41;104950;1274;73088;-77
2022/03/10 09:18:14;;;;;;;9.70;4.00;;;;;;;16.95;16.87;101936.77;105022;1274;59679;-77
2022/03/10 09:21:02;;;;;;;10.00;4.20;;;;;;;16.92;16.09;101939.70;104945;1272;60358;-77
2022/03/10 09:23:50;;;;;;;10.00;3.50;;;;;;;16.97;16.53;101941.84;104746;1273;73746;-77
2022/03/10 09:26:38;;;;;;;9.80;3.80;;;;;;;17.16;15.87;101935.59;104808;1274;68538;-77
2022/03/10 09:29:25;;;;;;;9.80;3.30;;;;;;;17.50;15.43;101941.55;104706;1277;72155;-77
2022/03/10 09:32:13;;;;;;;9.30;3.30;;;;;;;17.32;13.88;101940.65;104889;1276;59667;-77
2022/03/10 09:35:01;;;;;;;9.80;3.20;;;;;;;17.19;14.52;101938.94;105065;1275;59845;-77
2022/03/10 09:37:48;;;;;;;10.40;3.20;;;;;;;17.43;14.70;101941.77;104925;1276;73885;-78
2022/03/10 09:40:36;;;;;;;10.00;3.50;;;;;;;17.61;14.56;101942.38;104542;1277;68580;-78
2022/03/10 09:43:28;;;;;;;11.10;3.40;;;;;;;17.73;13.89;101950.77;104920;1277;72949;-78
2022/03/10 09:46:15;;;;;;;12.50;3.50;;;;;;;17.55;14.32;101946.04;104998;1275;59609;-79
2022/03/10 09:49:03;;;;;;;9.00;3.30;;;;;;;17.68;14.53;101947.77;104920;1277;60500;-78
2022/03/10 09:51:51;;;;;;;12.80;3.70;;;;;;;17.72;14.69;101953.67;105032;1274;73298;-77
2022/03/10 09:54:41;;;;;;;9.40;3.80;;;;;;;17.78;14.32;101950.54;104627;1275;67985;-78
2022/03/10 09:57:29;;;;;;;10.10;4.20;;;;;;;17.79;13.68;101951.02;104861;1279;73576;-77
2022/03/10 10:00:17;;;;;;;9.30;3.90;;;;;;;17.54;14.04;101955.98;104388;1277;60984;-76
2022/03/10 10:03:06;;;;;;;14.30;4.20;;;;;;;17.78;14.53;101954.13;104331;1277;59630;-78
2022/03/10 10:05:59;;;;;;;13.90;3.00;;;;;;;18.30;13.99;101952.23;104808;1276;72230;-78
2022/03/10 10:08:55;;;;;;;11.00;3.30;;;;;;;18.63;13.34;101942.17;104860;1276;66951;-78
2022/03/10 10:11:46;;;;;;;10.00;3.00;;;;;;;18.62;12.46;101947.30;104886;1277;71495;-77
2022/03/10 10:14:42;;;;;;;8.80;2.70;;;;;;;18.24;11.69;101949.61;105019;1276;60249;-78
2022/03/10 10:17:32;;;;;;;7.30;2.60;;;;;;;17.98;11.40;101953.88;105092;1276;60166;-77
2022/03/10 10:20:51;;;;;;;8.70;2.70;;;;;;;17.12;11.91;101950.21;104793;1276;72459;-76
2022/03/10 10:23:40;;;;;;;8.00;2.90;;;;;;;17.67;12.88;101944.38;104849;1277;67045;-76
2022/03/10 10:26:37;;;;;;;10.10;3.70;;;;;;;17.85;12.59;101951.66;104791;1276;73154;-76
2022/03/10 10:29:29;;;;;;;11.80;3.40;;;;;;;18.03;12.62;101953.95;104989;1273;59656;-77
2022/03/10 10:32:32;;;;;;;8.40;3.20;;;;;;;17.85;12.18;101955.94;104883;1274;60896;-77
2022/03/10 10:35:20;;;;;;;7.70;2.90;;;;;;;18.15;12.42;101955.94;105127;1273;75268;-77
2022/03/10 10:38:30;;;;;;;10.10;3.50;;;;;;;18.29;11.82;101949.24;104919;1273;68296;-78
2022/03/10 10:41:22;;;;;;;10.70;3.20;;;;;;;18.37;12.05;101949.70;104920;1273;72969;-79
2022/03/10 10:44:19;;;;;;;8.80;3.20;;;;;;;18.60;11.89;101940.40;105222;1274;59546;-78
2022/03/10 10:47:06;;;;;;;7.20;2.90;;;;;;;18.51;11.22;101937.35;104901;1271;59747;-78
2022/03/10 10:50:04;;;;;;;7.80;3.60;;;;;;;18.95;11.83;101940.43;104753;1271;73524;-77
2022/03/10 10:52:51;;;;;;;12.10;4.00;;;;;;;19.37;12.48;101940.53;105435;1271;66784;-77
2022/03/10 10:55:45;;;;;;;11.50;3.80;;;;;;;19.69;12.40;101940.11;104787;1274;71894;-76
2022/03/10 10:58:35;;;;;;;10.00;3.80;;;;;;;19.94;12.23;101935.83;105268;1271;59877;-77
2022/03/10 11:01:33;;;;;;;11.10;3.60;;;;;;;20.10;12.56;101929.18;104954;1271;59700;-78
2022/03/10 11:04:26;;;;;;;11.50;4.20;;;;;;;20.04;13.86;101930.95;105466;1273;72295;-78
2022/03/10 11:07:17;;;;;;;12.40;4.00;;;;;;;20.14;13.99;101934.80;105137;1271;68425;-78
2022/03/10 11:10:07;;;;;;;10.70;4.00;;;;;;;20.36;14.10;101931.34;105228;1272;72042;-78
2022/03/10 11:12:54;;;;;;;12.40;4.00;;;;;;;20.28;13.87;101930.66;105281;1275;59855;-77
2022/03/10 11:15:44;;;;;;;9.80;3.70;;;;;;;20.25;13.96;101931.84;105030;1275;59946;-77
2022/03/10 11:18:33;;;;;;;8.10;3.40;;;;;;;20.41;14.23;101928.94;104762;1274;72477;-78
2022/03/10 11:22:11;;;;;;;9.80;3.70;;;;;;;20.14;14.08;101924.69;105270;1275;67278;-78
2022/03/10 11:25:55;;;;;;;9.80;3.30;;;;;;;19.65;13.99;101928.46;104986;1277;73603;-78
2022/03/10 11:28:45;;;;;;;8.60;3.40;;;;;;;19.14;13.86;101930.74;104448;1280;59925;-77
2022/03/10 11:31:34;;;;;;;9.10;3.00;;;;;;;18.76;14.30;101926.48;104720;1279;60737;-78
2022/03/10 11:34:55;;;;;;;8.20;2.60;;;;;;;18.18;11.44;101933.79;104578;1279;73772;-78
2022/03/10 11:37:44;;;;;;;8.70;2.50;;;;;;;17.77;11.82;101931.77;104722;1278;66921;-78
2022/03/10 11:40:52;;;;;;;11.30;3.00;;;;;;;17.31;12.61;101930.79;104836;1278;72789;-78
2022/03/10 11:43:39;;;;;;;11.60;3.50;;;;;;;16.35;13.90;101932.20;104872;1280;59753;-76
2022/03/10 11:46:31;;;;;;;12.20;3.60;;;;;;;15.84;14.27;101937.45;104462;1281;60381;-77
2022/03/10 11:49:19;;;;;;;13.00;5.50;;;;;;;15.58;15.84;101934.17;104538;1278;73537;-77
2022/03/10 11:52:22;;;;;;;14.90;4.80;;;;;;;15.26;16.63;101931.89;104403;1280;68658;-77
2022/03/10 11:55:13;;;;;;;9.90;3.80;;;;;;;14.75;17.33;101929.77;104833;1280;71720;-76
2022/03/10 11:58:14;;;;;;;28.50;10.10;;;;;;;14.59;17.68;101925.95;105082;1274;59726;-76
2022/03/10 12:01:02;;;;;;;13.10;4.90;;;;;;;14.19;16.68;101926.16;105365;1271;60667;-77
2022/03/10 12:03:50;;;;;;;9.00;3.90;;;;;;;14.14;17.39;101931.14;104676;1274;71843;-76
2022/03/10 12:06:37;;;;;;;10.10;3.80;;;;;;;13.95;18.36;101925.55;104887;1271;67286;-76
2022/03/10 12:09:41;;;;;;;10.30;3.70;;;;;;;13.39;18.83;101929.29;104933;1271;73489;-77
2022/03/10 12:12:28;;;;;;;11.20;3.90;;;;;;;13.07;19.31;101921.70;105305;1271;59764;-76
2022/03/10 12:15:41;;;;;;;11.90;3.60;;;;;;;12.62;19.69;101920.55;105172;1271;59684;-77
2022/03/10 12:18:43;;;;;;;12.00;4.10;;;;;;;12.27;20.52;101917.14;105190;1274;71512;-77
2022/03/10 12:21:31;;;;;;;9.40;4.40;;;;;;;12.14;20.98;101921.05;105111;1271;68346;-76
2022/03/10 12:24:33;;;;;;;10.40;4.30;;;;;;;12.06;20.79;101924.20;104468;1274;1003016;-76
2022/03/10 12:27:21;;;;;;;12.40;4.10;;;;;;;11.87;21.10;101922.89;105674;1271;59674;-77
2022/03/10 12:30:09;;;;;;;12.50;4.20;;;;;;;11.74;22.24;101924.45;105048;1273;59563;-76
2022/03/10 12:32:58;;;;;;;9.20;3.80;;;;;;;11.64;23.37;101923.21;105108;1271;73176;-76
2022/03/10 12:35:57;;;;;;;11.20;4.10;;;;;;;11.27;24.38;101930.59;105211;1272;68092;-75
2022/03/10 12:38:46;;;;;;;10.40;3.70;;;;;;;10.68;25.05;101927.67;105146;1274;73104;-76
2022/03/10 12:41:51;;;;;;;12.00;4.30;;;;;;;9.99;25.84;101923.95;105056;1275;59766;-76
2022/03/10 12:44:44;;;;;;;9.20;3.60;;;;;;;9.28;27.08;101927.75;104944;1271;59672;-75
2022/03/10 12:47:33;;;;;;;11.00;3.70;;;;;;;8.52;28.35;101928.72;105583;1274;73931;-75
2022/03/10 12:50:22;;;;;;;9.30;3.90;;;;;;;8.04;29.16;101935.13;105201;1271;67140;-76
2022/03/10 12:53:16;;;;;;;10.10;4.00;;;;;;;7.57;29.96;101937.36;105102;1273;72717;-77
2022/03/10 12:56:04;;;;;;;10.60;3.70;;;;;;;7.14;30.93;101943.95;105083;1275;59711;-76
2022/03/10 12:58:56;;;;;;;11.30;4.20;;;;;;;6.69;31.59;101945.59;105071;1271;60390;-76